sensor_id;sensor_type;location;lat;lon;timestamp;pressure;altitude;pressure_sealevel;temperature;humidity
35910;BME280;22004;49.120;-0.200;2023-08-31T00:01:00;101074.69;;;16.62;81.89
35910;BME280;22004;49.120;-0.200;2023-08-31T00:03:26;101068.63;;;16.73;81.40
35910;BME280;22004;49.120;-0.200;2023-08-31T00:05:51;101071.13;;;16.75;81.19
35910;BME280;22004;49.120;-0.200;2023-08-31T00:08:16;101073.00;;;16.81;82.28
35910;BME280;22004;49.120;-0.200;2023-08-31T00:10:42;101075.31;;;16.77;82.34
35910;BME280;22004;49.120;-0.200;2023-08-31T00:13:08;101079.72;;;16.52;81.49
35910;BME280;22004;49.120;-0.200;2023-08-31T00:15:33;101089.47;;;16.86;82.02
35910;BME280;22004;49.120;-0.200;2023-08-31T00:18:01;101078.66;;;16.73;82.01
35910;BME280;22004;49.120;-0.200;2023-08-31T00:20:29;101067.59;;;16.74;81.96
35910;BME280;22004;49.120;-0.200;2023-08-31T00:22:55;101076.56;;;16.55;82.66
35910;BME280;22004;49.120;-0.200;2023-08-31T00:25:21;101074.06;;;16.73;82.16
35910;BME280;22004;49.120;-0.200;2023-08-31T00:27:46;101070.28;;;16.81;82.52
35910;BME280;22004;49.120;-0.200;2023-08-31T00:30:14;101063.41;;;16.78;82.18
35910;BME280;22004;49.120;-0.200;2023-08-31T00:32:42;101066.16;;;16.72;82.00
35910;BME280;22004;49.120;-0.200;2023-08-31T00:35:08;101058.63;;;16.74;82.49
35910;BME280;22004;49.120;-0.200;2023-08-31T00:37:34;101061.09;;;16.75;82.28
35910;BME280;22004;49.120;-0.200;2023-08-31T00:39:59;101065.31;;;16.71;82.83
35910;BME280;22004;49.120;-0.200;2023-08-31T00:42:25;101070.06;;;16.83;82.62
35910;BME280;22004;49.120;-0.200;2023-08-31T00:44:51;101065.47;;;16.70;82.22
35910;BME280;22004;49.120;-0.200;2023-08-31T00:47:16;101060.50;;;16.67;82.35
35910;BME280;22004;49.120;-0.200;2023-08-31T00:49:42;101056.75;;;16.74;82.44
35910;BME280;22004;49.120;-0.200;2023-08-31T00:52:08;101055.91;;;16.74;82.78
35910;BME280;22004;49.120;-0.200;2023-08-31T00:54:34;101051.13;;;16.63;82.63
35910;BME280;22004;49.120;-0.200;2023-08-31T00:57:00;101040.94;;;16.51;83.47
35910;BME280;22004;49.120;-0.200;2023-08-31T00:59:26;101046.53;;;16.63;82.70
35910;BME280;22004;49.120;-0.200;2023-08-31T01:02:16;101048.41;;;16.76;82.89
35910;BME280;22004;49.120;-0.200;2023-08-31T01:15:10;101028.78;;;16.74;82.99
35910;BME280;22004;49.120;-0.200;2023-08-31T01:17:39;101028.59;;;16.55;83.24
35910;BME280;22004;49.120;-0.200;2023-08-31T01:20:10;101029.03;;;16.72;83.44
35910;BME280;22004;49.120;-0.200;2023-08-31T01:22:43;101025.50;;;16.52;82.85
35910;BME280;22004;49.120;-0.200;2023-08-31T01:25:09;101038.19;;;16.58;83.29
35910;BME280;22004;49.120;-0.200;2023-08-31T01:27:36;101039.88;;;16.59;83.57
35910;BME280;22004;49.120;-0.200;2023-08-31T01:30:05;101049.84;;;16.78;83.11
35910;BME280;22004;49.120;-0.200;2023-08-31T01:32:31;101048.59;;;16.68;83.09
35910;BME280;22004;49.120;-0.200;2023-08-31T01:34:57;101037.34;;;16.64;83.35
35910;BME280;22004;49.120;-0.200;2023-08-31T01:37:43;101040.91;;;16.71;83.15
35910;BME280;22004;49.120;-0.200;2023-08-31T01:40:13;101032.38;;;16.61;83.10
35910;BME280;22004;49.120;-0.200;2023-08-31T01:42:42;101030.72;;;16.53;83.09
35910;BME280;22004;49.120;-0.200;2023-08-31T01:45:11;101041.91;;;16.70;83.51
35910;BME280;22004;49.120;-0.200;2023-08-31T01:47:39;101048.81;;;16.73;83.16
35910;BME280;22004;49.120;-0.200;2023-08-31T01:50:05;101048.19;;;16.64;83.57
35910;BME280;22004;49.120;-0.200;2023-08-31T01:52:31;101045.69;;;16.76;82.86
35910;BME280;22004;49.120;-0.200;2023-08-31T01:54:56;101042.34;;;16.67;83.56
35910;BME280;22004;49.120;-0.200;2023-08-31T01:57:22;101040.25;;;16.69;83.54
35910;BME280;22004;49.120;-0.200;2023-08-31T01:59:47;101033.63;;;16.72;83.72
35910;BME280;22004;49.120;-0.200;2023-08-31T02:02:12;101035.47;;;16.78;83.16
35910;BME280;22004;49.120;-0.200;2023-08-31T02:04:39;101031.09;;;16.77;83.28
35910;BME280;22004;49.120;-0.200;2023-08-31T02:07:05;101026.09;;;16.61;83.29
35910;BME280;22004;49.120;-0.200;2023-08-31T02:09:30;101027.38;;;16.58;83.53
35910;BME280;22004;49.120;-0.200;2023-08-31T02:11:55;101034.44;;;16.59;83.86
35910;BME280;22004;49.120;-0.200;2023-08-31T02:14:21;101027.59;;;16.57;83.56
35910;BME280;22004;49.120;-0.200;2023-08-31T02:16:47;101021.75;;;16.53;83.93
35910;BME280;22004;49.120;-0.200;2023-08-31T02:19:13;101042.38;;;16.54;83.92
35910;BME280;22004;49.120;-0.200;2023-08-31T02:21:38;101036.28;;;16.65;83.54
35910;BME280;22004;49.120;-0.200;2023-08-31T02:24:04;101030.69;;;16.60;83.51
35910;BME280;22004;49.120;-0.200;2023-08-31T02:26:29;101036.09;;;16.60;84.05
35910;BME280;22004;49.120;-0.200;2023-08-31T02:28:54;101039.63;;;16.61;83.95
35910;BME280;22004;49.120;-0.200;2023-08-31T02:31:20;101031.16;;;16.44;82.88
35910;BME280;22004;49.120;-0.200;2023-08-31T02:33:46;101041.13;;;16.57;83.74
35910;BME280;22004;49.120;-0.200;2023-08-31T02:36:12;101023.00;;;16.50;83.05
35910;BME280;22004;49.120;-0.200;2023-08-31T02:38:40;101039.00;;;16.65;84.15
35910;BME280;22004;49.120;-0.200;2023-08-31T02:41:05;101017.63;;;16.31;84.33
35910;BME280;22004;49.120;-0.200;2023-08-31T02:43:31;101018.25;;;16.33;83.67
35910;BME280;22004;49.120;-0.200;2023-08-31T02:46:00;101027.84;;;16.42;84.31
35910;BME280;22004;49.120;-0.200;2023-08-31T02:48:26;101022.19;;;16.43;84.28
35910;BME280;22004;49.120;-0.200;2023-08-31T02:50:53;101024.53;;;16.26;84.86
35910;BME280;22004;49.120;-0.200;2023-08-31T02:53:18;101019.25;;;16.51;84.39
35910;BME280;22004;49.120;-0.200;2023-08-31T02:55:44;101019.25;;;16.51;83.73
35910;BME280;22004;49.120;-0.200;2023-08-31T02:58:09;101009.44;;;16.50;84.02
35910;BME280;22004;49.120;-0.200;2023-08-31T03:00:35;101003.09;;;16.05;84.10
35910;BME280;22004;49.120;-0.200;2023-08-31T03:03:00;101016.97;;;16.48;84.03
35910;BME280;22004;49.120;-0.200;2023-08-31T03:05:25;101009.50;;;16.31;84.59
35910;BME280;22004;49.120;-0.200;2023-08-31T03:07:51;101011.19;;;16.32;84.37
35910;BME280;22004;49.120;-0.200;2023-08-31T03:10:16;101008.03;;;16.41;84.18
35910;BME280;22004;49.120;-0.200;2023-08-31T03:12:42;100992.84;;;16.20;83.29
35910;BME280;22004;49.120;-0.200;2023-08-31T03:15:07;101004.72;;;16.26;83.64
35910;BME280;22004;49.120;-0.200;2023-08-31T03:17:33;101010.13;;;16.33;85.15
35910;BME280;22004;49.120;-0.200;2023-08-31T03:19:59;101004.47;;;16.41;84.28
35910;BME280;22004;49.120;-0.200;2023-08-31T03:22:24;101002.81;;;16.40;84.80
35910;BME280;22004;49.120;-0.200;2023-08-31T03:24:49;100997.03;;;16.23;84.80
35910;BME280;22004;49.120;-0.200;2023-08-31T03:27:15;101006.75;;;16.44;84.73
35910;BME280;22004;49.120;-0.200;2023-08-31T03:29:41;100998.66;;;16.37;84.85
35910;BME280;22004;49.120;-0.200;2023-08-31T03:32:07;100994.94;;;16.05;85.11
35910;BME280;22004;49.120;-0.200;2023-08-31T03:34:32;101004.28;;;16.42;84.44
35910;BME280;22004;49.120;-0.200;2023-08-31T03:36:58;100991.00;;;16.14;85.73
35910;BME280;22004;49.120;-0.200;2023-08-31T03:39:27;100985.56;;;16.27;85.00
35910;BME280;22004;49.120;-0.200;2023-08-31T03:41:52;100993.44;;;16.36;84.73
35910;BME280;22004;49.120;-0.200;2023-08-31T03:44:17;100995.88;;;16.50;84.70
35910;BME280;22004;49.120;-0.200;2023-08-31T03:46:43;100973.31;;;15.98;85.93
35910;BME280;22004;49.120;-0.200;2023-08-31T03:49:08;100990.75;;;16.29;85.49
35910;BME280;22004;49.120;-0.200;2023-08-31T03:51:34;100989.09;;;16.15;85.13
35910;BME280;22004;49.120;-0.200;2023-08-31T03:53:59;101000.16;;;16.26;85.33
35910;BME280;22004;49.120;-0.200;2023-08-31T03:56:25;100996.19;;;16.22;85.46
35910;BME280;22004;49.120;-0.200;2023-08-31T03:58:51;100998.41;;;16.45;84.83
35910;BME280;22004;49.120;-0.200;2023-08-31T04:01:17;100990.09;;;16.40;84.91
35910;BME280;22004;49.120;-0.200;2023-08-31T04:03:43;100999.47;;;16.44;85.19
35910;BME280;22004;49.120;-0.200;2023-08-31T04:06:08;101004.28;;;16.42;85.13
35910;BME280;22004;49.120;-0.200;2023-08-31T04:08:33;100993.50;;;16.09;85.97
35910;BME280;22004;49.120;-0.200;2023-08-31T04:10:59;100991.97;;;16.40;85.20
35910;BME280;22004;49.120;-0.200;2023-08-31T04:13:24;100992.78;;;16.47;85.16
35910;BME280;22004;49.120;-0.200;2023-08-31T04:15:49;100994.72;;;16.26;85.56
35910;BME280;22004;49.120;-0.200;2023-08-31T04:18:15;100997.38;;;16.40;85.32
35910;BME280;22004;49.120;-0.200;2023-08-31T04:20:48;100997.81;;;16.43;85.20
35910;BME280;22004;49.120;-0.200;2023-08-31T04:23:14;100993.03;;;16.25;84.84
35910;BME280;22004;49.120;-0.200;2023-08-31T04:25:40;100997.44;;;16.20;85.01
35910;BME280;22004;49.120;-0.200;2023-08-31T04:28:07;101002.03;;;16.06;85.97
35910;BME280;22004;49.120;-0.200;2023-08-31T04:30:33;101003.47;;;16.15;85.83
35910;BME280;22004;49.120;-0.200;2023-08-31T04:32:58;101006.56;;;16.39;85.34
35910;BME280;22004;49.120;-0.200;2023-08-31T04:35:23;101006.59;;;16.32;85.55
35910;BME280;22004;49.120;-0.200;2023-08-31T04:37:49;101006.00;;;16.10;86.08
35910;BME280;22004;49.120;-0.200;2023-08-31T04:40:14;101016.16;;;16.41;85.71
35910;BME280;22004;49.120;-0.200;2023-08-31T04:42:40;101000.38;;;15.98;85.30
35910;BME280;22004;49.120;-0.200;2023-08-31T04:45:06;100997.69;;;15.98;85.66
35910;BME280;22004;49.120;-0.200;2023-08-31T04:47:31;101006.41;;;16.27;85.58
35910;BME280;22004;49.120;-0.200;2023-08-31T04:49:56;101009.31;;;16.32;85.58
35910;BME280;22004;49.120;-0.200;2023-08-31T04:52:24;101007.22;;;16.21;85.51
35910;BME280;22004;49.120;-0.200;2023-08-31T04:54:50;101016.41;;;16.20;86.01
35910;BME280;22004;49.120;-0.200;2023-08-31T04:57:15;101006.19;;;16.28;85.63
35910;BME280;22004;49.120;-0.200;2023-08-31T04:59:40;101013.66;;;16.40;85.34
35910;BME280;22004;49.120;-0.200;2023-08-31T05:02:05;101006.41;;;16.27;85.52
35910;BME280;22004;49.120;-0.200;2023-08-31T05:04:31;101004.53;;;16.14;85.90
35910;BME280;22004;49.120;-0.200;2023-08-31T05:06:56;101006.38;;;16.20;86.29
35910;BME280;22004;49.120;-0.200;2023-08-31T05:09:24;101007.22;;;16.21;86.38
35910;BME280;22004;49.120;-0.200;2023-08-31T05:11:49;101002.88;;;16.13;85.91
35910;BME280;22004;49.120;-0.200;2023-08-31T05:14:15;101003.88;;;16.25;85.48
35910;BME280;22004;49.120;-0.200;2023-08-31T05:16:40;101002.84;;;16.33;85.57
35910;BME280;22004;49.120;-0.200;2023-08-31T05:19:05;100999.78;;;15.96;85.40
35910;BME280;22004;49.120;-0.200;2023-08-31T05:21:31;100998.91;;;16.16;86.27
35910;BME280;22004;49.120;-0.200;2023-08-31T05:23:56;100997.47;;;16.07;86.15
35910;BME280;22004;49.120;-0.200;2023-08-31T05:26:22;100999.53;;;16.18;86.73
35910;BME280;22004;49.120;-0.200;2023-08-31T05:28:48;100995.34;;;16.15;86.94
35910;BME280;22004;49.120;-0.200;2023-08-31T05:31:13;101001.00;;;16.00;86.73
35910;BME280;22004;49.120;-0.200;2023-08-31T05:33:38;101003.50;;;16.09;86.95
35910;BME280;22004;49.120;-0.200;2023-08-31T05:36:04;101005.75;;;16.25;86.25
35910;BME280;22004;49.120;-0.200;2023-08-31T05:38:29;101002.84;;;16.26;85.65
35910;BME280;22004;49.120;-0.200;2023-08-31T05:41:03;101003.91;;;16.12;85.77
35910;BME280;22004;49.120;-0.200;2023-08-31T05:43:29;101002.91;;;15.67;87.23
35910;BME280;22004;49.120;-0.200;2023-08-31T05:45:54;101007.91;;;15.96;87.11
35910;BME280;22004;49.120;-0.200;2023-08-31T05:48:19;100997.69;;;16.12;85.53
35910;BME280;22004;49.120;-0.200;2023-08-31T05:50:45;101000.75;;;16.28;86.02
35910;BME280;22004;49.120;-0.200;2023-08-31T05:53:10;101000.19;;;15.93;87.00
35910;BME280;22004;49.120;-0.200;2023-08-31T05:55:35;100996.22;;;15.96;86.57
35910;BME280;22004;49.120;-0.200;2023-08-31T05:58:01;101001.38;;;16.24;85.97
35910;BME280;22004;49.120;-0.200;2023-08-31T06:00:26;101001.41;;;16.17;86.54
35910;BME280;22004;49.120;-0.200;2023-08-31T06:02:51;101003.47;;;16.28;86.05
35910;BME280;22004;49.120;-0.200;2023-08-31T06:05:17;101001.38;;;16.37;85.63
35910;BME280;22004;49.120;-0.200;2023-08-31T06:07:43;100996.00;;;16.11;85.91
35910;BME280;22004;49.120;-0.200;2023-08-31T06:10:08;100998.25;;;16.20;85.46
35910;BME280;22004;49.120;-0.200;2023-08-31T06:12:34;101000.78;;;16.22;86.18
35910;BME280;22004;49.120;-0.200;2023-08-31T06:15:00;100992.88;;;15.81;86.25
35910;BME280;22004;49.120;-0.200;2023-08-31T06:17:26;101006.81;;;16.11;85.72
35910;BME280;22004;49.120;-0.200;2023-08-31T06:19:51;101010.78;;;16.21;86.35
35910;BME280;22004;49.120;-0.200;2023-08-31T06:22:16;101012.59;;;16.41;85.88
35910;BME280;22004;49.120;-0.200;2023-08-31T06:24:42;101006.34;;;16.47;85.80
35910;BME280;22004;49.120;-0.200;2023-08-31T06:27:07;101006.56;;;16.39;85.71
35910;BME280;22004;49.120;-0.200;2023-08-31T06:29:32;101003.22;;;16.43;85.48
35910;BME280;22004;49.120;-0.200;2023-08-31T06:31:58;101007.84;;;16.36;86.22
35910;BME280;22004;49.120;-0.200;2023-08-31T06:34:23;101001.81;;;16.27;85.46
35910;BME280;22004;49.120;-0.200;2023-08-31T06:36:48;101006.16;;;16.42;85.37
35910;BME280;22004;49.120;-0.200;2023-08-31T06:39:14;100999.13;;;16.14;85.34
35910;BME280;22004;49.120;-0.200;2023-08-31T06:41:41;101004.50;;;16.21;84.81
35910;BME280;22004;49.120;-0.200;2023-08-31T06:44:06;101000.59;;;16.03;85.31
35910;BME280;22004;49.120;-0.200;2023-08-31T06:46:31;100996.63;;;15.99;85.93
35910;BME280;22004;49.120;-0.200;2023-08-31T06:49:03;100992.91;;;15.94;86.64
35910;BME280;22004;49.120;-0.200;2023-08-31T06:51:30;100981.00;;;15.48;87.49
35910;BME280;22004;49.120;-0.200;2023-08-31T06:53:55;100992.47;;;15.90;87.15
35910;BME280;22004;49.120;-0.200;2023-08-31T06:56:20;101009.31;;;16.32;86.49
35910;BME280;22004;49.120;-0.200;2023-08-31T06:58:46;101002.44;;;16.23;86.61
35910;BME280;22004;49.120;-0.200;2023-08-31T07:01:12;100996.81;;;16.18;87.13
35910;BME280;22004;49.120;-0.200;2023-08-31T07:03:38;101003.53;;;16.02;86.86
35910;BME280;22004;49.120;-0.200;2023-08-31T07:06:03;100998.47;;;16.25;86.78
35910;BME280;22004;49.120;-0.200;2023-08-31T07:08:28;101000.38;;;16.05;87.65
35910;BME280;22004;49.120;-0.200;2023-08-31T07:10:55;101011.78;;;16.34;86.75
35910;BME280;22004;49.120;-0.200;2023-08-31T07:13:21;101008.84;;;16.48;86.35
35910;BME280;22004;49.120;-0.200;2023-08-31T07:15:46;101006.59;;;16.32;86.53
35910;BME280;22004;49.120;-0.200;2023-08-31T07:18:14;101008.72;;;15.64;88.95
35910;BME280;22004;49.120;-0.200;2023-08-31T07:20:39;101019.13;;;15.73;89.42
35910;BME280;22004;49.120;-0.200;2023-08-31T07:23:05;101011.19;;;16.25;88.16
35910;BME280;22004;49.120;-0.200;2023-08-31T07:25:30;101014.97;;;15.97;88.07
35910;BME280;22004;49.120;-0.200;2023-08-31T07:27:55;101018.09;;;15.94;88.79
35910;BME280;22004;49.120;-0.200;2023-08-31T07:30:21;101020.56;;;16.16;87.69
35910;BME280;22004;49.120;-0.200;2023-08-31T07:32:46;101012.47;;;15.96;88.92
35910;BME280;22004;49.120;-0.200;2023-08-31T07:35:12;101002.50;;;15.96;89.39
35910;BME280;22004;49.120;-0.200;2023-08-31T07:37:37;101009.75;;;16.09;88.68
35910;BME280;22004;49.120;-0.200;2023-08-31T07:40:04;101004.34;;;16.02;89.77
35910;BME280;22004;49.120;-0.200;2023-08-31T07:42:34;101017.25;;;16.07;89.13
35910;BME280;22004;49.120;-0.200;2023-08-31T07:44:59;101024.50;;;16.46;87.41
35910;BME280;22004;49.120;-0.200;2023-08-31T07:47:24;101020.19;;;15.79;90.10
35910;BME280;22004;49.120;-0.200;2023-08-31T07:49:49;101014.38;;;15.82;90.13
35910;BME280;22004;49.120;-0.200;2023-08-31T07:52:15;101017.22;;;16.27;88.67
35910;BME280;22004;49.120;-0.200;2023-08-31T07:54:40;101014.97;;;16.04;89.09
35910;BME280;22004;49.120;-0.200;2023-08-31T07:57:06;101010.63;;;15.96;89.69
35910;BME280;22004;49.120;-0.200;2023-08-31T07:59:31;101003.47;;;15.49;91.91
35910;BME280;22004;49.120;-0.200;2023-08-31T08:01:56;101012.41;;;15.56;93.00
35910;BME280;22004;49.120;-0.200;2023-08-31T08:04:22;101012.06;;;15.72;92.27
35910;BME280;22004;49.120;-0.200;2023-08-31T08:06:49;101009.09;;;16.20;89.82
35910;BME280;22004;49.120;-0.200;2023-08-31T08:09:14;101006.16;;;16.42;88.40
35910;BME280;22004;49.120;-0.200;2023-08-31T08:11:40;101003.81;;;16.45;88.27
35910;BME280;22004;49.120;-0.200;2023-08-31T08:14:07;101000.59;;;16.17;90.54
35910;BME280;22004;49.120;-0.200;2023-08-31T08:16:33;101002.66;;;16.21;89.40
35910;BME280;22004;49.120;-0.200;2023-08-31T08:19:00;101000.50;;;16.43;89.63
35910;BME280;22004;49.120;-0.200;2023-08-31T08:21:26;100983.72;;;16.01;91.98
35910;BME280;22004;49.120;-0.200;2023-08-31T08:23:51;100977.88;;;16.05;91.46
35910;BME280;22004;49.120;-0.200;2023-08-31T08:26:17;100985.19;;;15.84;94.00
35910;BME280;22004;49.120;-0.200;2023-08-31T08:28:42;100999.31;;;16.06;92.52
35910;BME280;22004;49.120;-0.200;2023-08-31T08:31:08;101000.38;;;16.12;91.79
35910;BME280;22004;49.120;-0.200;2023-08-31T08:33:33;101001.19;;;16.19;91.89
35910;BME280;22004;49.120;-0.200;2023-08-31T08:35:58;100997.06;;;15.96;92.52
35910;BME280;22004;49.120;-0.200;2023-08-31T08:38:25;100995.00;;;15.72;95.21
35910;BME280;22004;49.120;-0.200;2023-08-31T08:40:50;100993.91;;;15.60;95.17
35910;BME280;22004;49.120;-0.200;2023-08-31T08:43:26;101003.94;;;15.66;96.24
35910;BME280;22004;49.120;-0.200;2023-08-31T08:45:52;101003.06;;;16.18;93.15
35910;BME280;22004;49.120;-0.200;2023-08-31T08:48:20;101005.19;;;15.83;94.92
35910;BME280;22004;49.120;-0.200;2023-08-31T08:50:46;101004.56;;;15.88;95.76
35910;BME280;22004;49.120;-0.200;2023-08-31T08:53:12;101006.00;;;16.10;94.12
35910;BME280;22004;49.120;-0.200;2023-08-31T08:55:41;100999.50;;;16.24;93.85
35910;BME280;22004;49.120;-0.200;2023-08-31T08:58:06;100999.94;;;16.21;94.67
35910;BME280;22004;49.120;-0.200;2023-08-31T09:00:32;100989.75;;;15.90;98.05
35910;BME280;22004;49.120;-0.200;2023-08-31T09:03:00;100993.06;;;15.52;99.79
35910;BME280;22004;49.120;-0.200;2023-08-31T09:05:34;101000.97;;;16.20;94.62
35910;BME280;22004;49.120;-0.200;2023-08-31T09:08:00;100995.81;;;15.92;96.43
35910;BME280;22004;49.120;-0.200;2023-08-31T09:10:42;100993.31;;;15.91;96.74
35910;BME280;22004;49.120;-0.200;2023-08-31T09:13:13;100998.69;;;16.17;94.59
35910;BME280;22004;49.120;-0.200;2023-08-31T09:18:29;100979.56;;;15.92;96.62
35910;BME280;22004;49.120;-0.200;2023-08-31T09:20:57;100988.22;;;16.41;94.25
35910;BME280;22004;49.120;-0.200;2023-08-31T09:23:23;100962.41;;;16.32;96.20
35910;BME280;22004;49.120;-0.200;2023-08-31T09:25:56;100967.06;;;16.11;99.63
35910;BME280;22004;49.120;-0.200;2023-08-31T09:28:26;100964.50;;;16.23;97.90
35910;BME280;22004;49.120;-0.200;2023-08-31T09:30:52;100961.59;;;16.24;98.50
35910;BME280;22004;49.120;-0.200;2023-08-31T09:33:19;100977.84;;;16.24;96.41
35910;BME280;22004;49.120;-0.200;2023-08-31T09:35:59;100974.78;;;15.94;98.08
35910;BME280;22004;49.120;-0.200;2023-08-31T09:38:25;100967.66;;;16.13;96.86
35910;BME280;22004;49.120;-0.200;2023-08-31T09:40:50;100971.78;;;16.29;96.71
35910;BME280;22004;49.120;-0.200;2023-08-31T09:43:20;100966.81;;;16.19;97.73
35910;BME280;22004;49.120;-0.200;2023-08-31T09:45:49;100953.31;;;15.93;100.00
35910;BME280;22004;49.120;-0.200;2023-08-31T09:48:16;100951.16;;;16.28;98.23
35910;BME280;22004;49.120;-0.200;2023-08-31T09:50:44;100952.06;;;15.95;100.00
35910;BME280;22004;49.120;-0.200;2023-08-31T09:53:11;100955.41;;;15.97;100.00
35910;BME280;22004;49.120;-0.200;2023-08-31T09:55:39;100956.59;;;16.15;100.00
35910;BME280;22004;49.120;-0.200;2023-08-31T09:58:07;100949.13;;;16.03;100.00
35910;BME280;22004;49.120;-0.200;2023-08-31T10:00:36;100943.72;;;16.03;100.00
35910;BME280;22004;49.120;-0.200;2023-08-31T10:03:04;100961.22;;;16.08;100.00
35910;BME280;22004;49.120;-0.200;2023-08-31T10:05:30;100955.75;;;16.27;99.15
35910;BME280;22004;49.120;-0.200;2023-08-31T10:07:57;100953.69;;;16.23;100.00
35910;BME280;22004;49.120;-0.200;2023-08-31T10:10:22;100952.59;;;16.31;99.95
35910;BME280;22004;49.120;-0.200;2023-08-31T10:12:49;100947.56;;;16.41;99.75
35910;BME280;22004;49.120;-0.200;2023-08-31T10:15:15;100939.94;;;16.18;100.00
35910;BME280;22004;49.120;-0.200;2023-08-31T10:17:42;100950.78;;;16.69;97.78
35910;BME280;22004;49.120;-0.200;2023-08-31T10:20:10;100948.94;;;16.63;100.00
35910;BME280;22004;49.120;-0.200;2023-08-31T10:22:36;100937.72;;;16.53;100.00
35910;BME280;22004;49.120;-0.200;2023-08-31T10:25:06;100943.13;;;16.60;100.00
35910;BME280;22004;49.120;-0.200;2023-08-31T10:27:44;100944.53;;;16.69;100.00
35910;BME280;22004;49.120;-0.200;2023-08-31T10:30:24;100926.59;;;16.74;100.00
35910;BME280;22004;49.120;-0.200;2023-08-31T10:35:50;100924.19;;;16.98;100.00
35910;BME280;22004;49.120;-0.200;2023-08-31T10:38:23;100924.97;;;17.05;100.00
35910;BME280;22004;49.120;-0.200;2023-08-31T10:46:33;100930.91;;;17.20;100.00
35910;BME280;22004;49.120;-0.200;2023-08-31T10:49:01;100929.56;;;17.04;100.00
35910;BME280;22004;49.120;-0.200;2023-08-31T10:51:32;100919.59;;;16.98;100.00
35910;BME280;22004;49.120;-0.200;2023-08-31T11:02:36;100924.94;;;17.12;100.00
35910;BME280;22004;49.120;-0.200;2023-08-31T11:05:05;100925.75;;;17.12;100.00
35910;BME280;22004;49.120;-0.200;2023-08-31T11:07:31;100921.47;;;16.98;100.00
35910;BME280;22004;49.120;-0.200;2023-08-31T11:12:44;100910.44;;;16.93;100.00
35910;BME280;22004;49.120;-0.200;2023-08-31T11:15:14;100917.09;;;16.97;100.00
35910;BME280;22004;49.120;-0.200;2023-08-31T11:17:41;100921.00;;;17.08;100.00
35910;BME280;22004;49.120;-0.200;2023-08-31T11:20:08;100912.44;;;17.11;100.00
35910;BME280;22004;49.120;-0.200;2023-08-31T11:22:38;100912.38;;;17.17;100.00
35910;BME280;22004;49.120;-0.200;2023-08-31T11:25:04;100901.50;;;17.17;100.00
35910;BME280;22004;49.120;-0.200;2023-08-31T11:27:29;100910.59;;;17.29;100.00
35910;BME280;22004;49.120;-0.200;2023-08-31T11:29:55;100908.63;;;17.43;100.00
35910;BME280;22004;49.120;-0.200;2023-08-31T11:32:23;100905.06;;;17.43;100.00
35910;BME280;22004;49.120;-0.200;2023-08-31T11:34:50;100906.69;;;17.50;100.00
35910;BME280;22004;49.120;-0.200;2023-08-31T11:37:15;100902.41;;;17.36;100.00
35910;BME280;22004;49.120;-0.200;2023-08-31T11:39:43;100904.13;;;17.30;100.00
35910;BME280;22004;49.120;-0.200;2023-08-31T11:42:13;100901.91;;;17.21;100.00
35910;BME280;22004;49.120;-0.200;2023-08-31T11:44:38;100906.06;;;17.23;100.00
35910;BME280;22004;49.120;-0.200;2023-08-31T11:47:04;100904.50;;;17.34;100.00
35910;BME280;22004;49.120;-0.200;2023-08-31T11:49:30;100896.66;;;17.26;100.00
35910;BME280;22004;49.120;-0.200;2023-08-31T11:51:56;100893.47;;;17.29;100.00
35910;BME280;22004;49.120;-0.200;2023-08-31T11:54:24;100897.44;;;17.33;100.00
35910;BME280;22004;49.120;-0.200;2023-08-31T11:56:50;100898.41;;;17.39;100.00
35910;BME280;22004;49.120;-0.200;2023-08-31T11:59:17;100896.16;;;17.61;100.00
35910;BME280;22004;49.120;-0.200;2023-08-31T12:01:43;100900.69;;;18.10;100.00
35910;BME280;22004;49.120;-0.200;2023-08-31T12:04:12;100887.31;;;18.27;98.96
35910;BME280;22004;49.120;-0.200;2023-08-31T12:06:39;100890.22;;;18.44;98.35
35910;BME280;22004;49.120;-0.200;2023-08-31T12:09:06;100884.31;;;18.65;99.28
35910;BME280;22004;49.120;-0.200;2023-08-31T12:11:32;100876.78;;;18.49;98.76
35910;BME280;22004;49.120;-0.200;2023-08-31T12:14:02;100879.16;;;18.45;98.21
35910;BME280;22004;49.120;-0.200;2023-08-31T12:16:33;100878.53;;;18.43;98.30
35910;BME280;22004;49.120;-0.200;2023-08-31T12:19:02;100890.28;;;18.25;98.56
35910;BME280;22004;49.120;-0.200;2023-08-31T12:21:27;100883.63;;;18.21;98.28
35910;BME280;22004;49.120;-0.200;2023-08-31T12:23:53;100880.72;;;18.34;99.17
35910;BME280;22004;49.120;-0.200;2023-08-31T12:26:18;100879.34;;;18.44;98.82
35910;BME280;22004;49.120;-0.200;2023-08-31T12:28:44;100889.69;;;18.53;98.63
35910;BME280;22004;49.120;-0.200;2023-08-31T12:31:09;100879.72;;;18.47;99.29
35910;BME280;22004;49.120;-0.200;2023-08-31T12:33:34;100878.00;;;18.34;99.20
35910;BME280;22004;49.120;-0.200;2023-08-31T12:35:59;100880.66;;;18.41;99.63
35910;BME280;22004;49.120;-0.200;2023-08-31T12:38:25;100879.63;;;18.72;99.07
35910;BME280;22004;49.120;-0.200;2023-08-31T12:40:51;100866.31;;;18.82;98.08
35910;BME280;22004;49.120;-0.200;2023-08-31T12:43:17;100875.69;;;18.98;97.20
35910;BME280;22004;49.120;-0.200;2023-08-31T12:45:42;100872.63;;;19.06;96.67
35910;BME280;22004;49.120;-0.200;2023-08-31T12:48:07;100871.81;;;19.18;96.76
35910;BME280;22004;49.120;-0.200;2023-08-31T12:50:33;100868.53;;;19.16;95.86
35910;BME280;22004;49.120;-0.200;2023-08-31T12:52:59;100853.50;;;19.36;95.86
35910;BME280;22004;49.120;-0.200;2023-08-31T12:55:24;100861.06;;;19.93;94.21
35910;BME280;22004;49.120;-0.200;2023-08-31T12:57:49;100863.47;;;19.78;95.17
35910;BME280;22004;49.120;-0.200;2023-08-31T13:00:15;100871.97;;;19.93;96.14
35910;BME280;22004;49.120;-0.200;2023-08-31T13:02:41;100861.94;;;19.82;95.39
35910;BME280;22004;49.120;-0.200;2023-08-31T13:05:07;100864.19;;;19.85;95.45
35910;BME280;22004;49.120;-0.200;2023-08-31T13:07:37;100860.41;;;19.62;95.57